Terminal Aerodrome Forecast
Issued by NWS Newport/Morehead City, NC

Home | Current Version | Previous Version | Text Only | Print | Product List | Glossary Off
Versions: 1 2 3 4 5 6 7 8 9 10 11 12 13 14 15 16 17 18 19 20 21 22 23 24

000
FTUS42 KMHX 231530 AAB
TAFEWN
TAF AMD
KEWN 231530Z 2316/2412 05005KT P6SM BKN015
     FM231630 08006KT P6SM BKN025
     FM231800 09005KT P6SM SCT025
     FM240900 22005KT 1SM BR BKN015=

USA.gov is the U.S. government's official web portal to all federal, state and local government web resources and services.